sensor_id;sensor_type;location;lat;lon;timestamp;temperature;humidity
33460;DHT22;19795;53.160;6.612;2022-10-19T06:00:55;9.50;99.90
33460;DHT22;19795;53.160;6.612;2022-10-19T06:03:58;9.60;99.90
33460;DHT22;19795;53.160;6.612;2022-10-19T06:09:00;9.60;99.90
33460;DHT22;19795;53.160;6.612;2022-10-19T06:11:28;9.60;99.90
33460;DHT22;19795;53.160;6.612;2022-10-19T06:13:55;9.60;99.90
33460;DHT22;19795;53.160;6.612;2022-10-19T06:16:22;9.70;99.90
33460;DHT22;19795;53.160;6.612;2022-10-19T06:18:48;9.70;99.90
33460;DHT22;19795;53.160;6.612;2022-10-19T06:21:18;9.70;99.90
33460;DHT22;19795;53.160;6.612;2022-10-19T06:23:52;9.70;99.90
33460;DHT22;19795;53.160;6.612;2022-10-19T06:26:19;9.70;99.90
33460;DHT22;19795;53.160;6.612;2022-10-19T06:28:45;9.70;99.90
33460;DHT22;19795;53.160;6.612;2022-10-19T06:31:12;9.70;99.90
33460;DHT22;19795;53.160;6.612;2022-10-19T06:33:39;9.80;99.90
33460;DHT22;19795;53.160;6.612;2022-10-19T06:36:06;9.80;99.90
33460;DHT22;19795;53.160;6.612;2022-10-19T06:38:32;9.90;99.90
33460;DHT22;19795;53.160;6.612;2022-10-19T06:40:58;9.90;99.90
33460;DHT22;19795;53.160;6.612;2022-10-19T06:43:24;10.00;99.90
33460;DHT22;19795;53.160;6.612;2022-10-19T06:45:53;10.10;99.90
33460;DHT22;19795;53.160;6.612;2022-10-19T06:48:19;10.20;99.90
33460;DHT22;19795;53.160;6.612;2022-10-19T06:50:44;10.20;99.90
33460;DHT22;19795;53.160;6.612;2022-10-19T06:53:10;10.30;99.90
33460;DHT22;19795;53.160;6.612;2022-10-19T06:55:36;10.40;99.90
33460;DHT22;19795;53.160;6.612;2022-10-19T06:58:02;10.50;99.90
33460;DHT22;19795;53.160;6.612;2022-10-19T07:00:30;10.60;99.90
33460;DHT22;19795;53.160;6.612;2022-10-19T07:02:57;10.50;99.90
33460;DHT22;19795;53.160;6.612;2022-10-19T07:05:23;10.60;99.90
33460;DHT22;19795;53.160;6.612;2022-10-19T07:07:49;10.60;99.90
33460;DHT22;19795;53.160;6.612;2022-10-19T07:10:15;10.60;99.90
33460;DHT22;19795;53.160;6.612;2022-10-19T07:12:40;10.60;99.90
33460;DHT22;19795;53.160;6.612;2022-10-19T07:15:06;10.70;99.90
33460;DHT22;19795;53.160;6.612;2022-10-19T07:17:32;10.70;99.90
33460;DHT22;19795;53.160;6.612;2022-10-19T07:19:58;10.80;99.90
33460;DHT22;19795;53.160;6.612;2022-10-19T07:22:23;10.90;99.90
33460;DHT22;19795;53.160;6.612;2022-10-19T07:24:49;11.00;99.90
33460;DHT22;19795;53.160;6.612;2022-10-19T07:27:16;11.20;99.90
33460;DHT22;19795;53.160;6.612;2022-10-19T07:29:42;11.20;99.90
33460;DHT22;19795;53.160;6.612;2022-10-19T07:32:08;11.20;99.90
33460;DHT22;19795;53.160;6.612;2022-10-19T07:34:33;11.30;99.90
33460;DHT22;19795;53.160;6.612;2022-10-19T07:36:59;11.20;99.90
33460;DHT22;19795;53.160;6.612;2022-10-19T07:39:25;11.40;99.90
33460;DHT22;19795;53.160;6.612;2022-10-19T07:41:54;11.50;99.90
33460;DHT22;19795;53.160;6.612;2022-10-19T07:44:19;11.50;99.90
33460;DHT22;19795;53.160;6.612;2022-10-19T07:46:45;11.60;99.90
33460;DHT22;19795;53.160;6.612;2022-10-19T07:49:13;11.70;99.90
33460;DHT22;19795;53.160;6.612;2022-10-19T07:51:41;11.70;99.90
33460;DHT22;19795;53.160;6.612;2022-10-19T07:54:07;11.80;99.90
33460;DHT22;19795;53.160;6.612;2022-10-19T07:56:34;11.80;99.90
33460;DHT22;19795;53.160;6.612;2022-10-19T07:59:00;11.90;99.90
33460;DHT22;19795;53.160;6.612;2022-10-19T08:01:31;11.90;99.90
33460;DHT22;19795;53.160;6.612;2022-10-19T08:03:58;12.00;99.90
33460;DHT22;19795;53.160;6.612;2022-10-19T08:06:25;12.00;99.90
33460;DHT22;19795;53.160;6.612;2022-10-19T08:08:52;12.10;99.90
33460;DHT22;19795;53.160;6.612;2022-10-19T08:11:20;12.10;99.90
33460;DHT22;19795;53.160;6.612;2022-10-19T08:13:47;12.30;99.90
33460;DHT22;19795;53.160;6.612;2022-10-19T08:16:22;12.40;99.90
33460;DHT22;19795;53.160;6.612;2022-10-19T08:18:48;12.40;99.90
33460;DHT22;19795;53.160;6.612;2022-10-19T08:21:14;12.40;99.90
33460;DHT22;19795;53.160;6.612;2022-10-19T08:23:40;12.40;99.90
33460;DHT22;19795;53.160;6.612;2022-10-19T08:26:05;12.50;99.90
33460;DHT22;19795;53.160;6.612;2022-10-19T08:28:31;12.50;99.90
33460;DHT22;19795;53.160;6.612;2022-10-19T08:30:57;12.50;99.90
33460;DHT22;19795;53.160;6.612;2022-10-19T08:33:24;12.60;99.90
33460;DHT22;19795;53.160;6.612;2022-10-19T08:35:51;12.60;99.90
33460;DHT22;19795;53.160;6.612;2022-10-19T08:38:19;12.60;99.90
33460;DHT22;19795;53.160;6.612;2022-10-19T08:40:45;12.60;99.90
33460;DHT22;19795;53.160;6.612;2022-10-19T08:43:19;12.60;99.90
33460;DHT22;19795;53.160;6.612;2022-10-19T08:50:48;12.80;99.90
33460;DHT22;19795;53.160;6.612;2022-10-19T08:53:20;12.90;99.90
33460;DHT22;19795;53.160;6.612;2022-10-19T08:56:14;12.90;99.90
33460;DHT22;19795;53.160;6.612;2022-10-19T09:01:54;12.80;99.90
33460;DHT22;19795;53.160;6.612;2022-10-19T09:04:37;12.80;99.90
33460;DHT22;19795;53.160;6.612;2022-10-19T09:07:29;12.90;99.90
33460;DHT22;19795;53.160;6.612;2022-10-19T09:10:18;13.10;99.90
33460;DHT22;19795;53.160;6.612;2022-10-19T09:12:55;13.00;99.90
33460;DHT22;19795;53.160;6.612;2022-10-19T09:15:33;13.20;99.90
33460;DHT22;19795;53.160;6.612;2022-10-19T09:18:02;13.10;99.90
33460;DHT22;19795;53.160;6.612;2022-10-19T09:20:38;13.00;99.90
33460;DHT22;19795;53.160;6.612;2022-10-19T09:25:52;12.90;99.90
33460;DHT22;19795;53.160;6.612;2022-10-19T09:30:55;13.00;99.90
33460;DHT22;19795;53.160;6.612;2022-10-19T09:33:27;13.00;99.90
33460;DHT22;19795;53.160;6.612;2022-10-19T09:35:55;13.00;99.90
33460;DHT22;19795;53.160;6.612;2022-10-19T09:38:25;13.00;99.90
33460;DHT22;19795;53.160;6.612;2022-10-19T09:40:51;13.00;99.90
33460;DHT22;19795;53.160;6.612;2022-10-19T09:43:18;13.20;99.90
33460;DHT22;19795;53.160;6.612;2022-10-19T09:45:58;13.20;99.90
33460;DHT22;19795;53.160;6.612;2022-10-19T09:50:58;13.00;99.90
33460;DHT22;19795;53.160;6.612;2022-10-19T09:53:24;13.10;99.90
33460;DHT22;19795;53.160;6.612;2022-10-19T09:56:02;13.20;99.90
33460;DHT22;19795;53.160;6.612;2022-10-19T09:58:29;13.20;99.90
33460;DHT22;19795;53.160;6.612;2022-10-19T10:00:56;13.10;99.90
33460;DHT22;19795;53.160;6.612;2022-10-19T10:05:48;13.20;99.90
33460;DHT22;19795;53.160;6.612;2022-10-19T10:08:18;13.30;99.90
33460;DHT22;19795;53.160;6.612;2022-10-19T10:11:07;13.40;99.90
33460;DHT22;19795;53.160;6.612;2022-10-19T10:13:47;13.60;99.90
33460;DHT22;19795;53.160;6.612;2022-10-19T10:16:15;13.60;99.90
33460;DHT22;19795;53.160;6.612;2022-10-19T10:19:05;13.60;99.90
33460;DHT22;19795;53.160;6.612;2022-10-19T10:21:52;13.60;99.90
33460;DHT22;19795;53.160;6.612;2022-10-19T10:24:24;13.70;99.90
33460;DHT22;19795;53.160;6.612;2022-10-19T10:26:55;13.90;99.90
33460;DHT22;19795;53.160;6.612;2022-10-19T10:34:39;13.60;99.90
33460;DHT22;19795;53.160;6.612;2022-10-19T10:37:12;13.60;99.90
33460;DHT22;19795;53.160;6.612;2022-10-19T10:39:41;13.70;99.90
33460;DHT22;19795;53.160;6.612;2022-10-19T10:42:13;13.60;99.90
33460;DHT22;19795;53.160;6.612;2022-10-19T10:44:44;13.70;99.90
33460;DHT22;19795;53.160;6.612;2022-10-19T10:47:14;13.80;99.90
33460;DHT22;19795;53.160;6.612;2022-10-19T10:49:41;13.90;99.90
33460;DHT22;19795;53.160;6.612;2022-10-19T10:52:16;13.70;99.90
33460;DHT22;19795;53.160;6.612;2022-10-19T10:57:29;13.60;99.90
33460;DHT22;19795;53.160;6.612;2022-10-19T11:00:15;13.70;99.90
33460;DHT22;19795;53.160;6.612;2022-10-19T11:05:30;13.80;99.90
33460;DHT22;19795;53.160;6.612;2022-10-19T11:13:45;14.00;99.90
33460;DHT22;19795;53.160;6.612;2022-10-19T11:16:34;14.10;99.90
33460;DHT22;19795;53.160;6.612;2022-10-19T11:22:13;14.10;99.90
33460;DHT22;19795;53.160;6.612;2022-10-19T11:24:56;14.20;99.90
33460;DHT22;19795;53.160;6.612;2022-10-19T11:38:23;14.00;99.90
33460;DHT22;19795;53.160;6.612;2022-10-19T11:43:41;13.70;99.90
33460;DHT22;19795;53.160;6.612;2022-10-19T11:46:24;13.80;99.90
33460;DHT22;19795;53.160;6.612;2022-10-19T11:48:55;13.70;99.90
33460;DHT22;19795;53.160;6.612;2022-10-19T11:55:01;13.90;99.90
33460;DHT22;19795;53.160;6.612;2022-10-19T11:57:29;13.80;99.90
33460;DHT22;19795;53.160;6.612;2022-10-19T12:00:08;13.80;99.90
33460;DHT22;19795;53.160;6.612;2022-10-19T12:02:48;14.00;99.90
33460;DHT22;19795;53.160;6.612;2022-10-19T12:08:27;14.30;99.90
33460;DHT22;19795;53.160;6.612;2022-10-19T12:14:03;13.90;99.90
33460;DHT22;19795;53.160;6.612;2022-10-19T12:16:42;13.90;99.90
33460;DHT22;19795;53.160;6.612;2022-10-19T12:19:17;14.20;99.90
33460;DHT22;19795;53.160;6.612;2022-10-19T12:21:45;14.50;99.90
33460;DHT22;19795;53.160;6.612;2022-10-19T12:24:21;14.80;99.90
33460;DHT22;19795;53.160;6.612;2022-10-19T12:26:49;14.90;99.90
33460;DHT22;19795;53.160;6.612;2022-10-19T12:29:20;14.80;99.90
33460;DHT22;19795;53.160;6.612;2022-10-19T12:31:47;14.90;99.90
33460;DHT22;19795;53.160;6.612;2022-10-19T12:34:48;14.90;99.90
33460;DHT22;19795;53.160;6.612;2022-10-19T12:37:34;14.60;99.90
33460;DHT22;19795;53.160;6.612;2022-10-19T12:45:27;13.80;99.90
33460;DHT22;19795;53.160;6.612;2022-10-19T12:56:10;13.70;99.90
33460;DHT22;19795;53.160;6.612;2022-10-19T13:01:17;14.30;99.90
33460;DHT22;19795;53.160;6.612;2022-10-19T13:03:43;14.40;99.90
33460;DHT22;19795;53.160;6.612;2022-10-19T13:06:32;14.20;99.90
33460;DHT22;19795;53.160;6.612;2022-10-19T13:09:04;13.80;99.90
33460;DHT22;19795;53.160;6.612;2022-10-19T13:11:30;13.90;99.90
33460;DHT22;19795;53.160;6.612;2022-10-19T13:16:58;14.20;99.90
33460;DHT22;19795;53.160;6.612;2022-10-19T13:19:24;14.10;99.90
33460;DHT22;19795;53.160;6.612;2022-10-19T13:24:34;14.80;99.90
33460;DHT22;19795;53.160;6.612;2022-10-19T13:34:54;13.50;99.90
33460;DHT22;19795;53.160;6.612;2022-10-19T13:37:20;13.20;99.90
33460;DHT22;19795;53.160;6.612;2022-10-19T13:39:46;13.00;99.90
33460;DHT22;19795;53.160;6.612;2022-10-19T13:42:26;13.00;99.90
33460;DHT22;19795;53.160;6.612;2022-10-19T13:44:52;13.10;99.90
33460;DHT22;19795;53.160;6.612;2022-10-19T13:47:36;13.20;99.90
33460;DHT22;19795;53.160;6.612;2022-10-19T14:06:37;13.20;99.90
33460;DHT22;19795;53.160;6.612;2022-10-19T14:12:22;13.20;99.90
33460;DHT22;19795;53.160;6.612;2022-10-19T14:14:48;13.10;99.90
33460;DHT22;19795;53.160;6.612;2022-10-19T14:17:30;13.20;99.90
33460;DHT22;19795;53.160;6.612;2022-10-19T14:20:01;13.10;99.90
33460;DHT22;19795;53.160;6.612;2022-10-19T14:22:33;13.00;99.90
33460;DHT22;19795;53.160;6.612;2022-10-19T14:25:23;12.90;99.90
33460;DHT22;19795;53.160;6.612;2022-10-19T14:27:57;12.80;99.90
33460;DHT22;19795;53.160;6.612;2022-10-19T14:30:31;13.10;99.90
33460;DHT22;19795;53.160;6.612;2022-10-19T14:32:59;12.90;99.90
33460;DHT22;19795;53.160;6.612;2022-10-19T14:35:34;12.90;99.90
33460;DHT22;19795;53.160;6.612;2022-10-19T14:38:04;12.50;99.90
33460;DHT22;19795;53.160;6.612;2022-10-19T14:40:36;12.80;99.90
33460;DHT22;19795;53.160;6.612;2022-10-19T14:43:30;12.70;99.90
33460;DHT22;19795;53.160;6.612;2022-10-19T14:48:42;12.70;99.90
33460;DHT22;19795;53.160;6.612;2022-10-19T14:54:12;12.70;99.90
33460;DHT22;19795;53.160;6.612;2022-10-19T14:56:52;12.90;99.90
33460;DHT22;19795;53.160;6.612;2022-10-19T15:01:53;12.60;99.90
33460;DHT22;19795;53.160;6.612;2022-10-19T15:04:29;12.50;99.90
33460;DHT22;19795;53.160;6.612;2022-10-19T15:07:00;12.40;99.90
33460;DHT22;19795;53.160;6.612;2022-10-19T15:09:37;12.40;99.90
33460;DHT22;19795;53.160;6.612;2022-10-19T15:12:12;12.40;99.90
33460;DHT22;19795;53.160;6.612;2022-10-19T15:14:39;12.40;99.90
33460;DHT22;19795;53.160;6.612;2022-10-19T15:17:24;12.50;99.90
33460;DHT22;19795;53.160;6.612;2022-10-19T15:19:51;12.30;99.90
33460;DHT22;19795;53.160;6.612;2022-10-19T15:22:39;12.30;99.90
33460;DHT22;19795;53.160;6.612;2022-10-19T15:27:41;12.20;99.90
33460;DHT22;19795;53.160;6.612;2022-10-19T15:32:56;12.10;99.90
33460;DHT22;19795;53.160;6.612;2022-10-19T15:35:36;12.00;99.90
33460;DHT22;19795;53.160;6.612;2022-10-19T15:41:38;12.00;99.90
33460;DHT22;19795;53.160;6.612;2022-10-19T15:44:06;11.90;99.90
33460;DHT22;19795;53.160;6.612;2022-10-19T15:52:20;11.70;99.90
33460;DHT22;19795;53.160;6.612;2022-10-19T15:54:47;11.60;99.90
33460;DHT22;19795;53.160;6.612;2022-10-19T15:57:34;11.50;99.90
33460;DHT22;19795;53.160;6.612;2022-10-19T16:00:21;11.50;99.90
33460;DHT22;19795;53.160;6.612;2022-10-19T16:02:46;11.40;99.90
33460;DHT22;19795;53.160;6.612;2022-10-19T16:05:12;11.30;99.90
33460;DHT22;19795;53.160;6.612;2022-10-19T16:07:39;11.20;99.90
33460;DHT22;19795;53.160;6.612;2022-10-19T16:10:06;11.20;99.90
33460;DHT22;19795;53.160;6.612;2022-10-19T16:12:32;11.20;99.90
33460;DHT22;19795;53.160;6.612;2022-10-19T16:14:57;11.10;99.90
33460;DHT22;19795;53.160;6.612;2022-10-19T16:17:23;10.90;99.90
33460;DHT22;19795;53.160;6.612;2022-10-19T16:19:49;10.90;99.90
33460;DHT22;19795;53.160;6.612;2022-10-19T16:22:15;10.70;99.90
33460;DHT22;19795;53.160;6.612;2022-10-19T16:24:41;10.60;99.90
33460;DHT22;19795;53.160;6.612;2022-10-19T16:27:07;10.60;99.90
33460;DHT22;19795;53.160;6.612;2022-10-19T16:29:34;10.50;99.90
33460;DHT22;19795;53.160;6.612;2022-10-19T16:31:59;10.50;99.90
33460;DHT22;19795;53.160;6.612;2022-10-19T16:34:26;10.40;99.90
33460;DHT22;19795;53.160;6.612;2022-10-19T16:36:51;10.60;99.90
33460;DHT22;19795;53.160;6.612;2022-10-19T16:39:18;10.00;99.90
33460;DHT22;19795;53.160;6.612;2022-10-19T16:41:43;10.20;99.90
33460;DHT22;19795;53.160;6.612;2022-10-19T16:44:10;10.20;99.90
33460;DHT22;19795;53.160;6.612;2022-10-19T16:46:37;10.10;99.90
33460;DHT22;19795;53.160;6.612;2022-10-19T16:49:03;10.10;99.90
33460;DHT22;19795;53.160;6.612;2022-10-19T16:51:35;10.40;99.90
33460;DHT22;19795;53.160;6.612;2022-10-19T16:54:02;10.20;99.90
33460;DHT22;19795;53.160;6.612;2022-10-19T16:56:29;10.30;99.90
33460;DHT22;19795;53.160;6.612;2022-10-19T16:58:58;10.20;99.90
33460;DHT22;19795;53.160;6.612;2022-10-19T17:01:25;10.10;99.90
33460;DHT22;19795;53.160;6.612;2022-10-19T17:03:52;10.10;99.90
33460;DHT22;19795;53.160;6.612;2022-10-19T17:06:18;10.10;99.90
33460;DHT22;19795;53.160;6.612;2022-10-19T17:08:44;10.10;99.90
33460;DHT22;19795;53.160;6.612;2022-10-19T17:11:14;10.00;99.90
33460;DHT22;19795;53.160;6.612;2022-10-19T17:13:41;10.00;99.90
33460;DHT22;19795;53.160;6.612;2022-10-19T17:16:07;10.00;99.90
33460;DHT22;19795;53.160;6.612;2022-10-19T17:18:33;9.90;99.90
33460;DHT22;19795;53.160;6.612;2022-10-19T17:23:30;9.90;99.90
33460;DHT22;19795;53.160;6.612;2022-10-19T17:25:56;9.90;99.90
33460;DHT22;19795;53.160;6.612;2022-10-19T17:28:21;9.90;99.90
33460;DHT22;19795;53.160;6.612;2022-10-19T17:30:47;9.90;99.90
33460;DHT22;19795;53.160;6.612;2022-10-19T17:33:14;9.90;99.90
33460;DHT22;19795;53.160;6.612;2022-10-19T17:35:40;9.90;99.90
33460;DHT22;19795;53.160;6.612;2022-10-19T17:38:05;9.80;99.90
33460;DHT22;19795;53.160;6.612;2022-10-19T17:40:32;9.70;99.90
33460;DHT22;19795;53.160;6.612;2022-10-19T17:43:00;9.80;99.90
33460;DHT22;19795;53.160;6.612;2022-10-19T17:45:26;9.90;99.90
33460;DHT22;19795;53.160;6.612;2022-10-19T17:47:52;9.80;99.90
33460;DHT22;19795;53.160;6.612;2022-10-19T17:50:17;9.90;99.90
33460;DHT22;19795;53.160;6.612;2022-10-19T17:52:43;9.80;99.90
33460;DHT22;19795;53.160;6.612;2022-10-19T17:55:08;9.80;99.90
33460;DHT22;19795;53.160;6.612;2022-10-19T17:57:35;9.90;99.90
33460;DHT22;19795;53.160;6.612;2022-10-19T18:00:01;10.00;99.90
33460;DHT22;19795;53.160;6.612;2022-10-19T18:02:26;9.90;99.90
33460;DHT22;19795;53.160;6.612;2022-10-19T18:04:52;10.10;99.90
33460;DHT22;19795;53.160;6.612;2022-10-19T18:07:20;10.00;99.90
33460;DHT22;19795;53.160;6.612;2022-10-19T18:09:50;10.00;99.90
33460;DHT22;19795;53.160;6.612;2022-10-19T18:12:16;10.40;99.90
33460;DHT22;19795;53.160;6.612;2022-10-19T18:14:43;10.40;99.90
33460;DHT22;19795;53.160;6.612;2022-10-19T18:17:09;10.00;99.90
33460;DHT22;19795;53.160;6.612;2022-10-19T18:19:35;10.00;99.90
33460;DHT22;19795;53.160;6.612;2022-10-19T18:22:01;10.00;99.90
33460;DHT22;19795;53.160;6.612;2022-10-19T18:24:26;9.80;99.90
33460;DHT22;19795;53.160;6.612;2022-10-19T18:26:52;9.70;99.90
33460;DHT22;19795;53.160;6.612;2022-10-19T18:29:21;9.70;99.90
33460;DHT22;19795;53.160;6.612;2022-10-19T18:31:48;9.70;99.90
33460;DHT22;19795;53.160;6.612;2022-10-19T18:34:17;9.70;99.90
33460;DHT22;19795;53.160;6.612;2022-10-19T18:36:44;9.60;99.90
33460;DHT22;19795;53.160;6.612;2022-10-19T18:39:11;9.90;99.90
33460;DHT22;19795;53.160;6.612;2022-10-19T18:41:38;9.50;99.90
33460;DHT22;19795;53.160;6.612;2022-10-19T18:44:05;9.50;99.90
33460;DHT22;19795;53.160;6.612;2022-10-19T18:46:34;9.50;99.90
33460;DHT22;19795;53.160;6.612;2022-10-19T18:49:02;9.40;99.90
33460;DHT22;19795;53.160;6.612;2022-10-19T18:51:28;9.40;99.90
33460;DHT22;19795;53.160;6.612;2022-10-19T18:59:04;9.30;99.90
33460;DHT22;19795;53.160;6.612;2022-10-19T19:01:30;9.20;99.90
33460;DHT22;19795;53.160;6.612;2022-10-19T19:03:58;9.10;99.90
33460;DHT22;19795;53.160;6.612;2022-10-19T19:06:29;9.20;99.90
33460;DHT22;19795;53.160;6.612;2022-10-19T19:08:55;9.10;99.90
33460;DHT22;19795;53.160;6.612;2022-10-19T19:11:23;9.00;99.90
33460;DHT22;19795;53.160;6.612;2022-10-19T19:13:54;9.00;99.90
33460;DHT22;19795;53.160;6.612;2022-10-19T19:16:21;9.00;99.90
